Spirit Lake, Iowa
Current Conditions -  °F | °C
As of 6:33 PM on Monday 24 Nov 2014 (Local Time) from KMJQ Reporting Station
Overcast Overcast  
Wind Chill:   Ceiling: 2000
Heat Index: 21°   Visibility: 10mi
Dew Point: 14°   Wind: 30mph
Humidity: 74%   Direction: 320°NW
Pressure: 29.83"   Gusts: 36mph
Location:  43.42°N, 95.1°W
Report Text: KMJQ 250033Z AUTO 32026G31KT 10SM OVC020 M06/M10 A2983 RMK AO2
Loading
Personal Weather Stations






























Interactive Weather Map New forecast layout! Learn more

10-Day Weather Forecast

Advertisements
Track Severe Weather on mobile